createdAt,value
2023-04-28T00:02:19.919Z,14.82
2023-04-28T00:04:55.057Z,12.02
2023-04-28T00:07:27.863Z,12.43
2023-04-28T00:10:00.134Z,14.02
2023-04-28T00:12:32.809Z,12.50
2023-04-28T00:15:04.922Z,12.63
2023-04-28T00:17:37.784Z,11.90
2023-04-28T00:20:14.533Z,10.55
2023-04-28T00:22:47.337Z,8.52
2023-04-28T00:25:19.617Z,10.63
2023-04-28T00:27:52.137Z,11.23
2023-04-28T00:30:25.736Z,10.88
2023-04-28T00:32:59.071Z,8.52
2023-04-28T00:35:34.138Z,9.63
2023-04-28T00:38:06.794Z,9.20
2023-04-28T00:40:39.576Z,9.77
2023-04-28T00:43:12.213Z,9.18
2023-04-28T00:45:44.530Z,13.10
2023-04-28T00:48:17.765Z,11.77
2023-04-28T00:50:52.821Z,11.68
2023-04-28T00:53:39.942Z,9.18
2023-04-28T00:56:12.492Z,11.70
2023-04-28T00:58:51.989Z,13.38
2023-04-28T01:01:27.720Z,9.57
2023-04-28T01:04:02.996Z,12.70
2023-04-28T01:06:43.121Z,12.50
2023-04-28T01:09:21.665Z,7.90
2023-04-28T01:11:53.793Z,8.35
2023-04-28T01:14:26.421Z,8.95
2023-04-28T01:16:59.946Z,9.00
2023-04-28T01:19:32.600Z,9.93
2023-04-28T01:22:07.878Z,8.68
2023-04-28T01:24:45.462Z,6.97
2023-04-28T01:27:17.728Z,8.82
2023-04-28T01:29:50.491Z,7.97
2023-04-28T01:32:22.714Z,11.82
2023-04-28T01:34:55.343Z,8.25
2023-04-28T01:37:27.517Z,11.52
2023-04-28T01:40:04.399Z,10.23
2023-04-28T01:42:36.714Z,9.68
2023-04-28T01:45:13.253Z,7.47
2023-04-28T01:47:45.520Z,9.18
2023-04-28T01:50:18.154Z,11.82
2023-04-28T01:52:52.684Z,9.90
2023-04-28T01:55:28.570Z,11.35
2023-04-28T01:58:01.572Z,14.10
2023-04-28T02:00:34.515Z,10.63
2023-04-28T02:03:06.903Z,11.77
2023-04-28T02:05:40.196Z,15.55
2023-04-28T02:08:14.270Z,14.20
2023-04-28T02:10:51.613Z,15.32
2023-04-28T02:13:24.048Z,15.02
2023-04-28T02:15:57.957Z,13.88
2023-04-28T02:18:30.736Z,15.00
2023-04-28T02:21:11.695Z,15.48
2023-04-28T02:23:46.311Z,13.40
2023-04-28T02:26:23.711Z,14.35
2023-04-28T02:28:55.890Z,11.30
2023-04-28T02:31:28.669Z,11.10
2023-04-28T02:34:01.070Z,14.95
2023-04-28T02:36:33.871Z,13.13
2023-04-28T02:39:06.147Z,15.18
2023-04-28T02:41:41.472Z,10.55
2023-04-28T02:44:16.790Z,19.00
2023-04-28T02:46:49.645Z,14.60
2023-04-28T02:49:21.893Z,12.95
2023-04-28T02:51:54.453Z,11.85
2023-04-28T02:54:32.949Z,13.20
2023-04-28T02:57:08.369Z,14.93
2023-04-28T02:59:40.755Z,14.15
2023-04-28T03:02:23.510Z,12.35
2023-04-28T03:04:58.188Z,12.15
2023-04-28T03:07:30.993Z,15.32
2023-04-28T03:10:04.359Z,12.98
2023-04-28T03:12:39.884Z,12.43
2023-04-28T03:15:14.150Z,12.07
2023-04-28T03:17:47.367Z,16.60
2023-04-28T03:20:22.596Z,14.77
2023-04-28T03:22:57.737Z,17.65
2023-04-28T03:25:30.091Z,14.95
2023-04-28T03:28:05.629Z,12.93
2023-04-28T03:30:37.892Z,14.68
2023-04-28T03:33:10.948Z,11.93
2023-04-28T03:35:43.580Z,13.32
2023-04-28T03:38:16.833Z,16.75
2023-04-28T03:40:49.094Z,12.95
2023-04-28T03:43:24.290Z,13.48
2023-04-28T03:45:57.053Z,12.10
2023-04-28T03:48:29.889Z,11.20
2023-04-28T03:51:05.290Z,12.35
2023-04-28T03:53:37.973Z,13.25
2023-04-28T03:56:11.053Z,12.20
2023-04-28T03:58:46.414Z,9.82
2023-04-28T04:01:18.597Z,10.93
2023-04-28T04:03:51.481Z,12.15
2023-04-28T04:06:25.813Z,12.98
2023-04-28T04:08:58.832Z,13.32
2023-04-28T04:11:31.218Z,13.00
2023-04-28T04:14:06.776Z,14.98
2023-04-28T04:16:40.234Z,12.63
2023-04-28T04:19:13.196Z,13.50
2023-04-28T04:21:45.473Z,12.75
2023-04-28T04:24:18.492Z,11.77
2023-04-28T04:26:51.074Z,13.15
2023-04-28T04:29:26.432Z,12.27
2023-04-28T04:31:58.737Z,10.90
2023-04-28T04:34:31.432Z,13.80
2023-04-28T04:37:03.837Z,12.15
2023-04-28T04:39:37.020Z,13.27
2023-04-28T04:42:23.261Z,12.40
2023-04-28T04:45:00.268Z,12.32
2023-04-28T04:47:33.748Z,11.63
2023-04-28T04:50:06.610Z,11.68
2023-04-28T04:52:38.968Z,14.25
2023-04-28T04:55:12.470Z,13.32
2023-04-28T04:57:45.862Z,12.45
2023-04-28T05:00:22.637Z,10.40
2023-04-28T05:02:54.883Z,12.40
2023-04-28T05:05:30.097Z,11.77
2023-04-28T05:08:02.810Z,12.10
2023-04-28T05:10:35.942Z,11.68
2023-04-28T05:13:07.993Z,11.93
2023-04-28T05:15:44.987Z,15.15
2023-04-28T05:18:17.288Z,11.43
2023-04-28T05:20:49.829Z,14.15
2023-04-28T05:23:21.874Z,15.65
2023-04-28T05:25:54.536Z,13.18
2023-04-28T05:28:26.478Z,12.43
2023-04-28T05:31:01.490Z,13.73
2023-04-28T05:33:33.394Z,15.02
2023-04-28T05:36:05.912Z,13.77
2023-04-28T05:38:38.611Z,10.10
2023-04-28T05:41:11.018Z,12.63
2023-04-28T05:43:43.058Z,15.32
2023-04-28T05:46:30.081Z,12.82
2023-04-28T05:49:06.175Z,15.70
2023-04-28T05:51:39.242Z,14.02
2023-04-28T05:54:11.295Z,14.02
2023-04-28T05:56:45.720Z,16.90
2023-04-28T05:59:18.811Z,13.25
2023-04-28T06:01:54.113Z,11.10
2023-04-28T06:04:29.282Z,13.35
2023-04-28T06:07:02.251Z,10.68
2023-04-28T06:09:37.278Z,8.77
2023-04-28T06:12:10.715Z,11.68
2023-04-28T06:14:42.572Z,10.73
2023-04-28T06:17:17.717Z,11.85
2023-04-28T06:19:51.659Z,12.85
2023-04-28T06:22:24.192Z,12.15
2023-04-28T06:24:56.096Z,15.23
2023-04-28T06:27:28.512Z,11.25
2023-04-28T06:30:00.583Z,11.65
2023-04-28T06:32:35.899Z,8.98
2023-04-28T06:35:11.016Z,9.55
2023-04-28T06:37:43.577Z,9.02
2023-04-28T06:40:15.762Z,11.00
2023-04-28T06:42:48.253Z,12.80
2023-04-28T06:45:20.352Z,15.85
2023-04-28T06:47:56.274Z,14.20
2023-04-28T06:50:29.738Z,13.85
2023-04-28T06:53:04.914Z,13.43
2023-04-28T06:55:37.639Z,13.20
2023-04-28T06:58:10.141Z,13.45
2023-04-28T07:00:42.256Z,13.68
2023-04-28T07:03:17.510Z,8.23
2023-04-28T07:05:49.875Z,14.32
2023-04-28T07:08:24.158Z,13.48
2023-04-28T07:10:56.360Z,13.90
2023-04-28T07:13:28.867Z,9.63
2023-04-28T07:16:01.052Z,13.43
2023-04-28T07:18:36.780Z,10.70
2023-04-28T07:21:09.482Z,10.93
2023-04-28T07:23:44.395Z,7.55
2023-04-28T07:26:16.760Z,12.20
2023-04-28T07:28:49.168Z,8.52
2023-04-28T07:31:23.457Z,9.20
2023-04-28T07:34:04.459Z,8.95
2023-04-28T07:36:41.104Z,9.85
2023-04-28T07:39:13.519Z,8.00
2023-04-28T07:41:45.381Z,9.85
2023-04-28T07:44:18.291Z,8.93
2023-04-28T07:46:52.136Z,10.10
2023-04-28T07:49:27.518Z,12.43
2023-04-28T07:51:59.622Z,11.25
2023-04-28T07:54:31.977Z,10.15
2023-04-28T07:57:06.658Z,11.27
2023-04-28T07:59:39.134Z,8.48
2023-04-28T08:02:15.494Z,10.20
2023-04-28T08:04:53.829Z,8.65
2023-04-28T08:07:29.082Z,9.57
2023-04-28T08:10:01.683Z,11.50
2023-04-28T08:12:34.033Z,9.45
2023-04-28T08:15:06.578Z,10.25
2023-04-28T08:17:38.367Z,10.27
2023-04-28T08:20:21.587Z,9.07
2023-04-28T08:22:55.031Z,10.70
2023-04-28T08:25:27.476Z,8.30
2023-04-28T08:28:00.773Z,10.20
2023-04-28T08:30:34.240Z,11.18
2023-04-28T08:33:09.633Z,10.25
2023-04-28T08:35:45.086Z,9.73
2023-04-28T08:38:18.465Z,11.40
2023-04-28T08:40:51.277Z,11.05
2023-04-28T08:43:24.650Z,12.38
2023-04-28T08:45:57.300Z,14.57
2023-04-28T08:48:30.550Z,12.93
2023-04-28T08:51:08.189Z,10.27
2023-04-28T08:54:08.825Z,10.13
2023-04-28T08:56:37.681Z,13.65
2023-04-28T08:59:10.928Z,16.48
2023-04-28T09:01:46.360Z,8.88
2023-04-28T09:04:21.085Z,10.70
2023-04-28T09:06:57.232Z,12.15
2023-04-28T09:09:33.966Z,9.95
2023-04-28T09:12:11.121Z,9.65
2023-04-28T09:15:09.674Z,19.85
2023-04-28T09:17:52.561Z,9.18
2023-04-28T09:20:32.800Z,14.27
2023-04-28T09:23:29.429Z,10.85
2023-04-28T09:26:06.990Z,9.95
2023-04-28T09:28:40.310Z,8.30
2023-04-28T09:31:28.700Z,10.05
2023-04-28T09:34:13.420Z,9.05
2023-04-28T09:36:52.633Z,15.15
2023-04-28T09:39:37.645Z,12.10
2023-04-28T09:42:10.521Z,10.82
2023-04-28T09:44:56.395Z,17.55
2023-04-28T09:47:29.009Z,13.43
2023-04-28T09:50:07.660Z,14.82
2023-04-28T09:52:40.640Z,11.60
2023-04-28T09:55:18.278Z,12.75
2023-04-28T09:57:53.197Z,11.90
2023-04-28T10:00:27.336Z,13.10
2023-04-28T10:03:03.857Z,11.82
2023-04-28T10:05:37.586Z,14.30
2023-04-28T10:08:10.635Z,10.50
2023-04-28T10:10:49.724Z,10.45
2023-04-28T10:13:23.118Z,12.65
2023-04-28T10:15:59.060Z,11.43
2023-04-28T10:18:32.971Z,12.88
2023-04-28T10:21:08.604Z,13.57
2023-04-28T10:24:13.840Z,12.38
2023-04-28T10:27:07.681Z,8.40
2023-04-28T10:29:40.836Z,9.63
2023-04-28T10:32:29.580Z,14.40
2023-04-28T10:35:41.680Z,11.93
2023-04-28T10:38:18.759Z,13.98
2023-04-28T10:41:03.962Z,14.18
2023-04-28T10:43:42.446Z,13.35
2023-04-28T10:46:15.410Z,11.13
2023-04-28T10:49:06.478Z,11.45
2023-04-28T10:51:40.919Z,11.98
2023-04-28T10:54:21.840Z,12.57
2023-04-28T10:57:24.727Z,15.18
2023-04-28T11:00:33.398Z,11.20
2023-04-28T11:03:06.935Z,12.60
2023-04-28T11:05:40.192Z,15.65
2023-04-28T11:08:39.561Z,12.80
2023-04-28T11:11:40.237Z,12.18
2023-04-28T11:14:37.490Z,12.43
2023-04-28T11:17:16.958Z,14.43
2023-04-28T11:19:51.684Z,13.68
2023-04-28T11:22:26.556Z,13.52
2023-04-28T11:25:00.591Z,14.48
2023-04-28T11:27:37.880Z,12.70
2023-04-28T11:30:25.682Z,16.65
2023-04-28T11:33:01.458Z,12.63
2023-04-28T11:35:45.994Z,15.02
2023-04-28T11:38:22.362Z,10.57
2023-04-28T11:41:04.221Z,13.27
2023-04-28T11:43:46.820Z,14.80
2023-04-28T11:46:26.750Z,16.95
2023-04-28T11:49:09.797Z,16.33
2023-04-28T11:51:43.716Z,13.05
2023-04-28T11:54:23.452Z,17.60
2023-04-28T11:56:57.117Z,15.35
2023-04-28T11:59:32.326Z,17.75
2023-04-28T12:02:06.573Z,14.32
2023-04-28T12:04:45.158Z,13.73
2023-04-28T12:07:20.254Z,11.82
2023-04-28T12:10:17.586Z,14.75
2023-04-28T12:12:53.514Z,14.23
2023-04-28T12:15:26.500Z,16.05
2023-04-28T12:17:58.830Z,16.45
2023-04-28T12:20:44.089Z,16.45
2023-04-28T12:23:16.416Z,14.05
2023-04-28T12:25:49.888Z,13.23
2023-04-28T12:28:22.090Z,13.98
2023-04-28T12:31:07.637Z,12.32
2023-04-28T12:33:41.062Z,16.02
2023-04-28T12:36:16.771Z,16.10
2023-04-28T12:38:53.531Z,11.65
2023-04-28T12:41:27.661Z,13.70
2023-04-28T12:44:00.223Z,17.00
2023-04-28T12:46:36.396Z,12.63
2023-04-28T12:49:08.492Z,16.13
2023-04-28T12:51:44.293Z,12.02
2023-04-28T12:54:16.634Z,14.65
2023-04-28T12:56:51.494Z,11.15
2023-04-28T12:59:24.332Z,18.00
2023-04-28T13:01:56.984Z,12.55
2023-04-28T13:04:30.701Z,12.38
2023-04-28T13:07:12.253Z,11.55
2023-04-28T13:09:44.914Z,11.05
2023-04-28T13:12:18.135Z,12.75
2023-04-28T13:14:53.252Z,11.00
2023-04-28T13:17:26.253Z,12.85
2023-04-28T13:19:59.140Z,15.48
2023-04-28T13:22:34.709Z,12.13
2023-04-28T13:25:06.894Z,11.18
2023-04-28T13:27:41.306Z,16.58
2023-04-28T13:30:19.217Z,10.88
2023-04-28T13:32:52.587Z,10.93
2023-04-28T13:35:24.865Z,14.70
2023-04-28T13:38:02.458Z,12.18
2023-04-28T13:40:43.739Z,16.63
2023-04-28T13:43:16.535Z,14.43
2023-04-28T13:45:49.097Z,13.68
2023-04-28T13:48:21.814Z,13.70
2023-04-28T13:50:54.017Z,23.98
2023-04-28T13:53:29.418Z,14.02
2023-04-28T13:56:02.209Z,12.65
2023-04-28T13:58:35.540Z,14.93
2023-04-28T14:01:07.999Z,12.90
2023-04-28T14:03:42.070Z,14.90
2023-04-28T14:06:15.050Z,13.27
2023-04-28T14:08:51.373Z,16.38
2023-04-28T14:11:24.208Z,12.98
2023-04-28T14:13:57.246Z,11.77
2023-04-28T14:16:31.003Z,14.82
2023-04-28T14:19:04.294Z,19.42
2023-04-28T14:21:36.925Z,12.88
2023-04-28T14:24:13.540Z,16.60
2023-04-28T14:26:46.292Z,14.15
2023-04-28T14:29:20.477Z,13.85
2023-04-28T14:31:55.887Z,14.68
2023-04-28T14:34:31.128Z,15.88
2023-04-28T14:37:03.965Z,12.38
2023-04-28T14:39:40.808Z,14.70
2023-04-28T14:42:13.605Z,12.73
2023-04-28T14:44:47.604Z,16.80
2023-04-28T14:47:20.607Z,13.07
2023-04-28T14:49:54.007Z,13.60
2023-04-28T14:52:27.568Z,13.10
2023-04-28T14:55:05.776Z,16.25
2023-04-28T14:57:38.808Z,11.10
2023-04-28T15:00:12.972Z,12.80
2023-04-28T15:02:48.984Z,14.88
2023-04-28T15:05:24.889Z,14.18
2023-04-28T15:07:57.615Z,12.20
2023-04-28T15:10:42.007Z,11.07
2023-04-28T15:13:14.889Z,14.23
2023-04-28T15:15:52.075Z,20.65
2023-04-28T15:18:24.970Z,13.30
2023-04-28T15:21:00.416Z,14.52
2023-04-28T15:23:32.930Z,11.40
2023-04-28T15:26:09.051Z,16.35
2023-04-28T15:28:41.656Z,15.48
2023-04-28T15:31:14.962Z,15.75
2023-04-28T15:33:47.981Z,15.80
2023-04-28T15:36:21.534Z,17.13
2023-04-28T15:38:55.066Z,17.88
2023-04-28T15:41:30.933Z,13.98
2023-04-28T15:44:05.412Z,14.43
2023-04-28T15:46:42.968Z,21.02
2023-04-28T15:49:15.448Z,17.23
2023-04-28T15:51:48.852Z,14.02
2023-04-28T15:54:21.297Z,12.52
2023-04-28T15:56:57.816Z,19.48
2023-04-28T15:59:31.677Z,14.13
2023-04-28T16:02:04.936Z,14.40
2023-04-28T16:04:37.774Z,17.20
2023-04-28T16:07:11.417Z,17.42
2023-04-28T16:09:44.343Z,15.65
2023-04-28T16:12:20.212Z,26.02
2023-04-28T16:14:53.243Z,15.88
2023-04-28T16:17:26.476Z,17.30
2023-04-28T16:19:59.091Z,15.43
2023-04-28T16:22:32.254Z,21.50
2023-04-28T16:25:04.939Z,18.27
2023-04-28T16:28:05.540Z,24.00
2023-04-28T16:30:43.295Z,16.35
2023-04-28T16:33:16.598Z,20.80
2023-04-28T16:35:56.546Z,21.10
2023-04-28T16:38:29.533Z,18.15
2023-04-28T16:41:02.061Z,19.92
2023-04-28T16:43:38.694Z,21.25
2023-04-28T16:46:10.852Z,17.30
2023-04-28T16:48:44.574Z,20.70
2023-04-28T16:51:17.163Z,23.25
2023-04-28T16:53:50.012Z,20.65
2023-04-28T16:56:22.293Z,20.15
2023-04-28T16:59:01.019Z,16.33
2023-04-28T17:01:33.722Z,20.40
2023-04-28T17:04:07.690Z,19.38
2023-04-28T17:06:40.496Z,20.23
2023-04-28T17:09:13.265Z,20.15
2023-04-28T17:11:45.972Z,19.88
2023-04-28T17:14:21.852Z,20.73
2023-04-28T17:16:54.252Z,18.15
2023-04-28T17:19:27.170Z,18.25
2023-04-28T17:21:59.579Z,19.23
2023-04-28T17:24:33.535Z,19.25
2023-04-28T17:27:05.947Z,20.40
2023-04-28T17:29:41.851Z,17.90
2023-04-28T17:32:14.014Z,22.63
2023-04-28T17:34:52.133Z,24.35
2023-04-28T17:37:24.534Z,20.27
2023-04-28T17:39:57.453Z,20.02
2023-04-28T17:42:33.769Z,21.05
2023-04-28T17:45:10.381Z,22.23
2023-04-28T17:47:42.707Z,23.48
2023-04-28T17:50:16.097Z,21.55
2023-04-28T17:52:48.374Z,25.58
2023-04-28T17:55:21.381Z,23.00
2023-04-28T17:57:53.850Z,21.63
2023-04-28T18:00:29.409Z,26.30
2023-04-28T18:03:02.529Z,24.05
2023-04-28T18:05:36.353Z,24.83
2023-04-28T18:08:08.943Z,25.85
2023-04-28T18:10:41.850Z,24.88
2023-04-28T18:13:14.170Z,21.83
2023-04-28T18:15:49.827Z,20.30
2023-04-28T18:18:22.421Z,22.17
2023-04-28T18:21:02.900Z,21.15
2023-04-28T18:23:35.211Z,22.05
2023-04-28T18:26:08.264Z,21.35
2023-04-28T18:28:40.975Z,23.15
2023-04-28T18:31:16.737Z,23.38
2023-04-28T18:33:49.127Z,19.58
2023-04-28T18:36:21.851Z,25.17
2023-04-28T18:38:54.182Z,19.52
2023-04-28T18:41:26.857Z,22.58
2023-04-28T18:44:01.856Z,20.48
2023-04-28T18:46:37.822Z,23.27
2023-04-28T18:49:10.729Z,20.13
2023-04-28T18:51:44.297Z,26.38
2023-04-28T18:54:17.585Z,26.13
2023-04-28T18:56:52.973Z,25.85
2023-04-28T18:59:26.215Z,17.90
2023-04-28T19:02:01.616Z,19.08
2023-04-28T19:04:34.471Z,19.15
2023-04-28T19:07:07.731Z,23.25
2023-04-28T19:09:40.092Z,19.77
2023-04-28T19:12:12.859Z,21.85
2023-04-28T19:14:45.372Z,19.20
2023-04-28T19:17:23.727Z,18.13
2023-04-28T19:19:59.537Z,20.85
2023-04-28T19:22:41.625Z,20.75
2023-04-28T19:25:15.705Z,21.55
2023-04-28T19:27:49.053Z,21.67
2023-04-28T19:30:21.181Z,22.67
2023-04-28T19:32:56.769Z,20.02
2023-04-28T19:35:32.260Z,18.83
2023-04-28T19:38:04.975Z,20.50
2023-04-28T19:40:37.093Z,19.13
2023-04-28T19:43:10.094Z,18.80
2023-04-28T19:45:43.701Z,20.80
2023-04-28T19:48:19.256Z,18.17
2023-04-28T19:50:51.694Z,20.90
2023-04-28T19:53:24.739Z,19.65
2023-04-28T19:55:58.531Z,29.10
2023-04-28T19:58:32.133Z,23.70
2023-04-28T20:01:04.560Z,21.17
2023-04-28T20:03:40.359Z,21.30
2023-04-28T20:06:12.742Z,18.92
2023-04-28T20:08:45.343Z,18.15
2023-04-28T20:11:17.851Z,17.70
2023-04-28T20:13:51.252Z,19.23
2023-04-28T20:16:23.886Z,19.05
2023-04-28T20:18:59.736Z,32.95
2023-04-28T20:21:32.093Z,22.27
2023-04-28T20:24:04.892Z,17.60
2023-04-28T20:26:37.174Z,17.80
2023-04-28T20:29:09.986Z,20.58
2023-04-28T20:31:42.432Z,19.83
2023-04-28T20:34:18.657Z,24.00
2023-04-28T20:36:51.973Z,20.98
2023-04-28T20:39:24.741Z,17.55
2023-04-28T20:41:57.618Z,16.10
2023-04-28T20:44:30.784Z,19.75
2023-04-28T20:47:03.156Z,18.90
2023-04-28T20:49:38.625Z,19.67
2023-04-28T20:52:11.053Z,17.33
2023-04-28T20:54:44.253Z,16.58
2023-04-28T20:57:16.695Z,16.55
2023-04-28T20:59:49.675Z,19.20
2023-04-28T21:02:22.222Z,23.60
2023-04-28T21:04:57.734Z,19.75
2023-04-28T21:07:30.333Z,22.50
2023-04-28T21:10:03.264Z,20.13
2023-04-28T21:12:35.508Z,19.42
2023-04-28T21:15:09.641Z,17.67
2023-04-28T21:17:41.945Z,18.77
2023-04-28T21:20:18.293Z,18.55
2023-04-28T21:22:50.668Z,14.43
2023-04-28T21:25:23.841Z,18.65
2023-04-28T21:27:56.541Z,16.98
2023-04-28T21:30:30.652Z,15.10
2023-04-28T21:33:03.036Z,24.02
2023-04-28T21:35:39.062Z,16.20
2023-04-28T21:38:11.373Z,18.05
2023-04-28T21:40:44.307Z,16.30
2023-04-28T21:43:16.730Z,18.02
2023-04-28T21:45:49.538Z,16.38
2023-04-28T21:48:22.012Z,17.17
2023-04-28T21:50:57.453Z,17.02
2023-04-28T21:53:29.817Z,15.10
2023-04-28T21:56:03.850Z,18.42
2023-04-28T21:58:47.262Z,16.77
2023-04-28T22:01:20.060Z,13.73
2023-04-28T22:03:52.681Z,15.63
2023-04-28T22:06:28.490Z,16.58
2023-04-28T22:09:03.170Z,18.35
2023-04-28T22:11:38.851Z,15.07
2023-04-28T22:14:15.220Z,14.98
2023-04-28T22:16:56.295Z,18.50
2023-04-28T22:19:28.546Z,14.40
2023-04-28T22:22:04.930Z,15.32
2023-04-28T22:24:37.493Z,18.23
2023-04-28T22:27:13.132Z,14.25
2023-04-28T22:29:45.139Z,13.48
2023-04-28T22:32:22.712Z,15.45
2023-04-28T22:34:56.696Z,16.33
2023-04-28T22:37:31.933Z,14.65
2023-04-28T22:40:05.020Z,14.70
2023-04-28T22:42:42.098Z,15.38
2023-04-28T22:45:16.263Z,15.20
2023-04-28T22:47:52.115Z,14.52
2023-04-28T22:50:24.413Z,16.95
2023-04-28T22:52:59.623Z,12.25
2023-04-28T22:55:31.861Z,14.00
2023-04-28T22:58:04.493Z,15.43
2023-04-28T23:00:36.489Z,15.38
2023-04-28T23:03:09.532Z,12.90
2023-04-28T23:05:42.580Z,15.02
2023-04-28T23:08:18.131Z,14.23
2023-04-28T23:10:50.540Z,16.67
2023-04-28T23:13:23.056Z,16.98
2023-04-28T23:16:01.742Z,15.10
2023-04-28T23:18:36.338Z,15.27
2023-04-28T23:21:08.541Z,14.40
2023-04-28T23:23:43.771Z,19.92
2023-04-28T23:26:22.213Z,14.65
2023-04-28T23:28:54.703Z,15.48
2023-04-28T23:31:26.819Z,15.55
2023-04-28T23:33:59.972Z,15.35
2023-04-28T23:36:35.037Z,13.25
2023-04-28T23:39:11.259Z,14.05
2023-04-28T23:41:43.575Z,15.55
2023-04-28T23:44:23.260Z,14.27
2023-04-28T23:46:59.811Z,15.70
2023-04-28T23:49:34.431Z,13.45
2023-04-28T23:52:07.627Z,12.43
2023-04-28T23:54:42.649Z,15.65
2023-04-28T23:57:14.890Z,17.30
2023-04-28T23:59:48.651Z,14.15
